createdAt,value
2019-02-18T00:04:27.874Z,26.44
2019-02-18T00:09:36.270Z,26.10
2019-02-18T00:14:44.461Z,24.75
2019-02-18T00:19:52.884Z,25.58
2019-02-18T00:25:01.104Z,26.22
2019-02-18T00:30:09.585Z,25.59
2019-02-18T00:35:17.714Z,26.35
2019-02-18T00:40:26.071Z,25.50
2019-02-18T00:45:34.549Z,26.50
2019-02-18T00:50:43.185Z,25.35
2019-02-18T00:55:53.828Z,25.20
2019-02-18T01:00:52.175Z,25.00
2019-02-18T01:06:00.313Z,24.66
2019-02-18T01:11:08.814Z,25.01
2019-02-18T01:16:17.093Z,24.08
2019-02-18T01:21:25.594Z,24.62
2019-02-18T01:26:33.768Z,24.80
2019-02-18T01:31:42.180Z,24.35
2019-02-18T01:36:50.366Z,25.06
2019-02-18T01:41:58.769Z,25.35
2019-02-18T01:47:07.505Z,25.00
2019-02-18T01:52:15.853Z,25.55
2019-02-18T01:57:24.390Z,25.58
2019-02-18T02:02:32.818Z,25.37
2019-02-18T02:07:41.043Z,25.00
2019-02-18T02:12:49.349Z,25.09
2019-02-18T02:17:57.789Z,25.55
2019-02-18T02:23:06.342Z,26.17
2019-02-18T02:28:14.591Z,25.31
2019-02-18T02:33:23.101Z,24.71
2019-02-18T02:38:31.535Z,24.41
2019-02-18T02:43:39.870Z,23.96
2019-02-18T02:48:48.033Z,25.04
2019-02-18T02:53:56.445Z,25.71
2019-02-18T02:59:04.702Z,25.32
2019-02-18T03:04:13.162Z,24.76
2019-02-18T03:09:21.397Z,24.59
2019-02-18T03:14:29.823Z,19.66
2019-02-18T03:19:38.048Z,19.89
2019-02-18T03:24:46.425Z,18.36
2019-02-18T03:29:54.609Z,17.45
2019-02-18T03:35:02.918Z,18.05
2019-02-18T03:40:11.088Z,17.94
2019-02-18T03:45:19.569Z,17.87
2019-02-18T03:50:27.747Z,17.90
2019-02-18T03:55:36.817Z,16.77
2019-02-18T04:00:45.046Z,16.85
2019-02-18T04:05:53.433Z,16.72
2019-02-18T04:11:01.662Z,16.84
2019-02-18T04:16:10.137Z,17.62
2019-02-18T04:21:18.536Z,20.44
2019-02-18T04:26:26.851Z,21.84
2019-02-18T04:31:35.141Z,21.63
2019-02-18T04:36:43.507Z,22.89
2019-02-18T04:41:51.854Z,23.30
2019-02-18T04:47:00.229Z,22.55
2019-02-18T04:52:08.397Z,18.95
2019-02-18T04:57:16.724Z,19.64
2019-02-18T05:02:25.179Z,17.33
2019-02-18T05:07:33.548Z,17.73
2019-02-18T05:12:41.714Z,18.30
2019-02-18T05:17:50.367Z,17.55
2019-02-18T05:22:58.483Z,17.53
2019-02-18T05:28:06.947Z,17.63
2019-02-18T05:33:15.162Z,17.87
2019-02-18T05:38:23.688Z,17.40
2019-02-18T05:43:31.929Z,17.67
2019-02-18T05:48:40.376Z,16.91
2019-02-18T05:53:49.087Z,17.35
2019-02-18T05:58:57.745Z,17.68
2019-02-18T06:04:06.018Z,19.13
2019-02-18T06:09:14.647Z,19.69
2019-02-18T06:14:22.847Z,22.18
2019-02-18T06:19:31.304Z,23.40
2019-02-18T06:24:39.658Z,24.07
2019-02-18T06:29:48.317Z,23.56
2019-02-18T06:34:57.051Z,22.84
2019-02-18T06:40:05.946Z,22.94
2019-02-18T06:45:14.419Z,23.51
2019-02-18T06:50:22.758Z,23.62
2019-02-18T06:55:31.516Z,23.00
2019-02-18T07:00:40.772Z,23.36
2019-02-18T07:05:49.113Z,23.12
2019-02-18T07:10:57.579Z,23.53
2019-02-18T07:16:06.846Z,23.49
2019-02-18T07:21:16.243Z,22.72
2019-02-18T07:26:25.630Z,22.28
2019-02-18T07:31:34.297Z,21.96
2019-02-18T07:36:43.345Z,23.07
2019-02-18T07:41:51.842Z,22.23
2019-02-18T07:47:00.249Z,20.89
2019-02-18T07:52:08.806Z,20.81
2019-02-18T07:57:17.463Z,20.67
2019-02-18T08:02:26.286Z,19.98
2019-02-18T08:07:34.782Z,20.52
2019-02-18T08:12:43.286Z,20.07
2019-02-18T08:17:51.993Z,19.92
2019-02-18T08:23:01.063Z,20.17
2019-02-18T08:28:09.716Z,20.30
2019-02-18T08:33:18.237Z,20.08
2019-02-18T08:38:26.409Z,20.02
2019-02-18T08:43:35.172Z,19.36
2019-02-18T08:48:43.556Z,18.52
2019-02-18T08:53:51.969Z,18.15
2019-02-18T08:59:00.174Z,16.52
2019-02-18T09:04:08.599Z,16.29
2019-02-18T09:09:16.969Z,15.92
2019-02-18T09:14:25.495Z,15.78
2019-02-18T09:19:33.553Z,16.61
2019-02-18T09:24:41.573Z,16.68
2019-02-18T09:29:49.646Z,16.56
2019-02-18T09:35:02.053Z,16.89
2019-02-18T09:40:05.401Z,17.11
2019-02-18T09:45:14.755Z,17.48
2019-02-18T09:50:21.264Z,18.40
2019-02-18T09:55:29.325Z,18.40
2019-02-18T10:00:37.425Z,18.80
2019-02-18T10:05:45.581Z,18.80
2019-02-18T10:10:56.077Z,19.16
2019-02-18T10:16:01.442Z,18.82
2019-02-18T10:21:09.774Z,18.59
2019-02-18T10:26:18.278Z,19.46
2019-02-18T10:31:26.497Z,21.56
2019-02-18T10:36:35.727Z,22.43
2019-02-18T10:41:43.921Z,21.06
2019-02-18T10:46:52.414Z,20.52
2019-02-18T10:52:00.689Z,21.43
2019-02-18T10:57:09.421Z,21.76
2019-02-18T11:02:18.215Z,20.88
2019-02-18T11:07:26.659Z,19.84
2019-02-18T11:12:34.902Z,18.68
2019-02-18T11:17:43.082Z,19.33
2019-02-18T11:22:51.127Z,17.92
2019-02-18T11:27:59.300Z,18.21
2019-02-18T11:33:07.615Z,18.24
2019-02-18T11:38:16.077Z,18.51
2019-02-18T11:43:24.366Z,18.20
2019-02-18T11:48:32.817Z,18.24
2019-02-18T11:53:41.151Z,18.93
2019-02-18T11:58:49.510Z,18.81
2019-02-18T12:03:57.703Z,18.78
2019-02-18T12:09:06.146Z,18.37
2019-02-18T12:14:14.290Z,19.32
2019-02-18T12:19:22.571Z,19.03
2019-02-18T12:24:30.793Z,19.87
2019-02-18T12:29:39.529Z,20.60
2019-02-18T12:34:47.518Z,20.57
2019-02-18T12:39:55.882Z,20.13
2019-02-18T12:45:03.906Z,20.13
2019-02-18T12:50:12.207Z,19.28
2019-02-18T12:55:21.118Z,19.33
2019-02-18T13:00:29.191Z,18.82
2019-02-18T13:05:37.421Z,19.28
2019-02-18T13:10:45.761Z,19.89
2019-02-18T13:15:54.019Z,19.45
2019-02-18T13:21:02.376Z,19.14
2019-02-18T13:26:10.916Z,19.07
2019-02-18T13:31:19.506Z,19.51
2019-02-18T13:36:27.719Z,19.11
2019-02-18T13:41:36.873Z,17.91
2019-02-18T13:46:43.936Z,18.67
2019-02-18T13:51:56.530Z,18.55
2019-02-18T13:56:59.882Z,19.07
2019-02-18T14:02:08.495Z,18.73
2019-02-18T14:07:16.625Z,18.44
2019-02-18T14:12:24.802Z,17.78
2019-02-18T14:17:33.073Z,19.05
2019-02-18T14:22:41.460Z,19.82
2019-02-18T14:27:49.737Z,19.30
2019-02-18T14:32:58.964Z,19.42
2019-02-18T14:38:07.361Z,19.17
2019-02-18T14:43:15.671Z,18.92
2019-02-18T14:48:23.919Z,18.57
2019-02-18T14:53:32.332Z,17.94
2019-02-18T14:58:40.552Z,18.36
2019-02-18T15:03:49.009Z,17.56
2019-02-18T15:08:57.297Z,17.78
2019-02-18T15:14:05.773Z,17.19
2019-02-18T15:19:13.997Z,17.60
2019-02-18T15:24:22.497Z,16.90
2019-02-18T15:29:30.678Z,16.93
2019-02-18T15:34:39.109Z,17.34
2019-02-18T15:39:47.295Z,17.19
2019-02-18T15:44:55.664Z,17.13
2019-02-18T15:50:03.885Z,16.55
2019-02-18T15:55:12.461Z,16.23
2019-02-18T16:00:20.747Z,15.98
2019-02-18T16:05:29.221Z,16.32
2019-02-18T16:10:37.829Z,15.41
2019-02-18T16:15:46.508Z,15.32
2019-02-18T16:20:54.669Z,15.19
2019-02-18T16:26:03.033Z,15.58
2019-02-18T16:31:11.294Z,15.53
2019-02-18T16:36:19.672Z,16.16
2019-02-18T16:41:27.847Z,16.39
2019-02-18T16:46:36.312Z,16.29
2019-02-18T16:51:44.517Z,16.02
2019-02-18T16:56:53.237Z,15.93
2019-02-18T17:02:01.318Z,15.91
2019-02-18T17:07:10.196Z,16.13
2019-02-18T17:12:18.416Z,16.88
2019-02-18T17:17:26.696Z,17.19
2019-02-18T17:22:34.835Z,16.15
2019-02-18T17:27:43.120Z,16.46
2019-02-18T17:32:51.356Z,16.24
2019-02-18T17:37:59.766Z,16.26
2019-02-18T17:43:16.074Z,15.95
2019-02-18T17:48:15.784Z,16.01
2019-02-18T17:53:24.284Z,16.07
2019-02-18T17:58:32.449Z,16.00
2019-02-18T18:03:40.898Z,15.39
2019-02-18T18:08:49.325Z,15.95
2019-02-18T18:13:57.476Z,15.95
2019-02-18T18:19:09.362Z,16.27
2019-02-18T18:24:13.933Z,16.11
2019-02-18T18:29:22.104Z,16.54
2019-02-18T18:34:30.341Z,17.53
2019-02-18T18:39:38.641Z,17.08
2019-02-18T18:44:46.774Z,16.95
2019-02-18T18:49:55.093Z,17.11
2019-02-18T18:55:03.284Z,16.91
2019-02-18T19:00:12.221Z,16.41
2019-02-18T19:05:20.668Z,16.76
2019-02-18T19:10:29.413Z,16.88
2019-02-18T19:15:37.458Z,16.43
2019-02-18T19:20:45.894Z,16.15
2019-02-18T19:25:56.576Z,16.61
2019-02-18T19:30:54.812Z,16.66
2019-02-18T19:36:03.281Z,16.70
2019-02-18T19:41:11.739Z,16.60
2019-02-18T19:46:20.393Z,16.96
2019-02-18T19:51:28.689Z,16.17
2019-02-18T19:56:36.944Z,16.21
2019-02-18T20:01:45.443Z,16.09
2019-02-18T20:06:53.629Z,16.73
2019-02-18T20:12:02.072Z,16.60
2019-02-18T20:17:10.266Z,17.06
2019-02-18T20:22:18.946Z,17.08
2019-02-18T20:27:27.201Z,16.51
2019-02-18T20:32:35.727Z,18.19
2019-02-18T20:37:44.341Z,17.80
2019-02-18T20:42:52.898Z,19.96
2019-02-18T20:48:01.374Z,17.49
2019-02-18T20:53:09.848Z,16.49
2019-02-18T20:58:18.655Z,15.97
2019-02-18T21:03:27.074Z,16.30
2019-02-18T21:08:35.102Z,16.12
2019-02-18T21:13:43.559Z,16.17
2019-02-18T21:18:51.723Z,16.58
2019-02-18T21:24:00.310Z,16.89
2019-02-18T21:29:09.168Z,17.06
2019-02-18T21:34:17.301Z,16.46
2019-02-18T21:39:25.396Z,16.50
2019-02-18T21:44:34.366Z,15.95
2019-02-18T21:49:42.588Z,15.81
2019-02-18T21:54:50.809Z,15.55
2019-02-18T21:59:58.977Z,15.49
2019-02-18T22:05:07.527Z,15.72
2019-02-18T22:10:15.641Z,16.29
2019-02-18T22:15:23.972Z,15.99
2019-02-18T22:20:32.027Z,15.86
2019-02-18T22:25:40.549Z,16.04
2019-02-18T22:30:48.760Z,16.19
2019-02-18T22:35:57.318Z,16.29
2019-02-18T22:41:05.527Z,16.88
2019-02-18T22:46:13.950Z,17.23
2019-02-18T22:51:22.109Z,16.92
2019-02-18T22:56:30.488Z,16.34
2019-02-18T23:01:39.766Z,16.92
2019-02-18T23:06:47.935Z,16.43
2019-02-18T23:11:56.080Z,16.29
2019-02-18T23:17:04.706Z,15.76
2019-02-18T23:22:12.956Z,16.05
2019-02-18T23:27:21.170Z,15.83
2019-02-18T23:32:29.308Z,16.03
2019-02-18T23:37:37.728Z,15.95
2019-02-18T23:42:45.944Z,15.99
2019-02-18T23:47:54.187Z,15.94
2019-02-18T23:53:02.272Z,15.93
2019-02-18T23:58:11.220Z,16.09
